Terminal Aerodrome Forecast
Issued by NWS

Home | Current Version | Previous Version | Text Only | Print | Product List | Glossary Off
Versions: 1 2 3 4 5 6 7 8 9 10 11 12 13 14 15 16 17

000
FTUS43 KFGF 072328
TAFBJI
TAF
KBJI 072328Z 0800/0824 28016G22KT 2SM -SN OVC015
     FM080300 30016KT 3SM -SN OVC015
     FM080500 31015KT P6SM OVC015
      TEMPO 0805/0806 1SM -SN OVC007
     FM081100 31015KT P6SM OVC020
     FM081600 31012KT P6SM OVC008=

USA.gov is the U.S. government's official web portal to all federal, state and local government web resources and services.